Terminal Aerodrome Forecast
Issued by NWS

Home | Current Version | Previous Version | Text Only | Print | Product List | Glossary On
Versions: 1 2 3 4 5 6 7 8 9 10 11 12 13 14 15
000
FTUS46 KMTR 042100 AAA
TAFSNS
TAF AMD
KSNS 042103Z 0421/0518 26009G16KT P6SM BKN025
      TEMPO 0421/0424 SCT025
     FM050200 29005KT P6SM OVC018
     FM051730 28011KT P6SM BKN020=

USA.gov is the U.S. government's official web portal to all federal, state and local government web resources and services.